ěÝzenÝ letovÚho provozu ╚eskÚ republiky
Letiste: LKTB Aktualizace: 26.11.2022 18:34:32  UTC
 METAR LKTB 26.11. 18:30 RRA
METAR LKTB 261830Z 28002KT 9999 FEW049 06/04 Q1029 NOSIG=
 TAF LKTB 26.11. 17:00 ...
TAF LKTB 261700Z 2618/2800 30005KT 9999 SCT030      BECMG 2623/2701 VRB02KT 4000 BR SCT008      TEMPO 2701/2709 1700 BR      PROB30 TEMPO 2702/2708 0900 FZFG BKN002      BECMG 2709/2711 9999 BKN016      BECMG 2721/2723 1700 BR OVC006      TEMPO 2723/2800 0800 FG BKN002=